Statesboro, GA

3:55 AM EDT on July 23, 2017 (GMT -0400)
Statesboro-Bulloch County

Weather History for KTBR - October, 2012

Change the Weather History Date:

Tuesday, October 30, 2012

  Actual Average (KSBO) Record (KSBO)
Temperature  
Mean Temperature 53 °F -  
Max Temperature 62 °F 73 °F 86 °F (2016)
Min Temperature 44 °F 51 °F 50 °F (2013)
Degree Days  
Heating Degree Days 12    
Growing Degree Days 3 (Base 50)    
Moisture  
Dew Point 27 °F    
Average Humidity 40    
Maximum Humidity 57    
Minimum Humidity 22    
Precipitation  
Precipitation 0.00 in - - ()
Sea Level Pressure  
Sea Level Pressure 29.68 in    
Wind  
Wind Speed 12 mph (West)    
Max Wind Speed 24 mph    
Max Gust Speed 31 mph    
Visibility 10 miles    
Events      
Averages and records for this station are not official NWS values.
T = Trace of Precipitation, MM = Missing Value Source: NWS Daily Summary

Daily Weather History Graph

Daily Weather History Graph

Search for Another Location

Airport or City:

Trip Planner

Search our weather history database for the weather conditions in past years. The results will help you decide how hot, cold, wet, or windy it might be!

Date:

Astronomy

Oct. 30, 2012 Rise Set
Actual Time 7:42 AM EDT 6:37 PM EDT
Civil Twilight 7:17 AM EDT 7:03 PM EDT
Nautical Twilight 6:48 AM EDT 7:32 PM EDT
Astronomical Twilight 6:19 AM EDT 8:00 PM EDT
Moon 7:11 PM EDT (10/30) 8:24 AM EDT (10/30)
Length of Visible Light 11h 45m
Length of Day
10h 54m
Full, 99% of the Moon is Illuminated
Oct 30
Full
Nov 6
Last Quarter
Nov 13
New
Nov 20
First Quarter
Nov 28
Full

Hourly Weather History & Observations

Time (EDT) Temp. Windchill Dew Point Humidity Pressure Visibility Wind Dir Wind Speed Gust Speed Precip Events Conditions
12:15 AM 50.0 °F - 32.0 °F 50% 29.69 in 10.0 mi West 9.2 mph - N/A   Clear
12:35 AM 50.0 °F - 32.0 °F 50% 29.69 in 10.0 mi WNW 9.2 mph - N/A   Clear
12:55 AM 50.0 °F - 32.0 °F 50% 29.68 in 10.0 mi West 6.9 mph - N/A   Clear
1:15 AM 48.2 °F - 32.0 °F 54% 29.68 in 10.0 mi West 9.2 mph - N/A   Clear
1:35 AM 46.4 °F 41.9 °F 32.0 °F 57% 29.67 in 10.0 mi West 9.2 mph - N/A   Clear
1:55 AM 46.4 °F 42.4 °F 32.0 °F 57% 29.67 in 10.0 mi West 8.1 mph - N/A   Clear
2:15 AM 46.4 °F 42.4 °F 32.0 °F 57% 29.66 in 10.0 mi West 8.1 mph - N/A   Clear
2:35 AM 46.4 °F 41.9 °F 32.0 °F 57% 29.66 in 10.0 mi West 9.2 mph - N/A   Clear
2:55 AM 46.4 °F 41.5 °F 30.2 °F 53% 29.66 in 10.0 mi West 10.4 mph - N/A   Clear
3:15 AM 46.4 °F 41.1 °F 30.2 °F 53% 29.65 in 10.0 mi West 11.5 mph 16.1 mph N/A   Clear
3:35 AM 46.4 °F 41.1 °F 28.4 °F 50% 29.65 in 10.0 mi West 11.5 mph - N/A   Clear
3:55 AM 46.4 °F 41.9 °F 28.4 °F 50% 29.64 in 10.0 mi West 9.2 mph 16.1 mph N/A   Clear
4:15 AM 46.4 °F 41.5 °F 28.4 °F 50% 29.64 in 10.0 mi West 10.4 mph 16.1 mph N/A   Clear
4:35 AM 46.4 °F 41.5 °F 28.4 °F 50% 29.64 in 10.0 mi West 10.4 mph 16.1 mph N/A   Clear
4:55 AM 46.4 °F 41.1 °F 28.4 °F 50% 29.64 in 10.0 mi West 11.5 mph 18.4 mph N/A   Clear
5:15 AM 44.6 °F 38.4 °F 28.4 °F 53% 29.64 in 10.0 mi West 12.7 mph 17.3 mph N/A   Clear
5:35 AM 44.6 °F 39.2 °F 28.4 °F 53% 29.64 in 10.0 mi West 10.4 mph 17.3 mph N/A   Clear
5:55 AM 44.6 °F 38.4 °F 28.4 °F 53% 29.65 in 10.0 mi West 12.7 mph 19.6 mph N/A   Clear
6:15 AM 44.6 °F 38.4 °F 28.4 °F 53% 29.65 in 10.0 mi West 12.7 mph - N/A   Clear
6:35 AM 44.6 °F 39.2 °F 30.2 °F 57% 29.65 in 10.0 mi West 10.4 mph 17.3 mph N/A   Clear
6:55 AM 44.6 °F 39.2 °F 30.2 °F 57% 29.65 in 10.0 mi West 10.4 mph 17.3 mph N/A   Clear
7:15 AM 44.6 °F 38.8 °F 30.2 °F 57% 29.65 in 10.0 mi West 11.5 mph 17.3 mph N/A   Clear
7:35 AM 44.6 °F 39.2 °F 30.2 °F 57% 29.65 in 10.0 mi West 10.4 mph - N/A   Clear
8:15 AM 44.6 °F 40.2 °F 30.2 °F 57% 29.66 in 10.0 mi West 8.1 mph - N/A   Clear
8:35 AM 46.4 °F 41.5 °F 32.0 °F 57% 29.67 in 10.0 mi West 10.4 mph 16.1 mph N/A   Clear
8:55 AM 46.4 °F 41.5 °F 32.0 °F 57% 29.67 in 10.0 mi West 10.4 mph 19.6 mph N/A   Clear
9:15 AM 48.2 °F - 32.0 °F 54% 29.67 in 10.0 mi West 10.4 mph 18.4 mph N/A   Clear
9:35 AM 50.0 °F - 32.0 °F 50% 29.68 in 10.0 mi WNW 16.1 mph 25.3 mph N/A   Clear
9:55 AM 51.8 °F - 32.0 °F 47% 29.67 in 10.0 mi West 13.8 mph 26.5 mph N/A   Clear
10:15 AM 51.8 °F - 32.0 °F 47% 29.68 in 10.0 mi West 18.4 mph 26.5 mph N/A   Clear
10:35 AM 53.6 °F - 30.2 °F 41% 29.68 in 10.0 mi WNW 16.1 mph 26.5 mph N/A   Clear
10:55 AM 53.6 °F - 30.2 °F 41% 29.68 in 10.0 mi West 11.5 mph 26.5 mph N/A   Clear
11:15 AM 55.4 °F - 30.2 °F 38% 29.68 in 10.0 mi West 17.3 mph 27.6 mph N/A   Clear
11:35 AM 55.4 °F - 28.4 °F 36% 29.69 in 10.0 mi West 21.9 mph 26.5 mph N/A   Clear
11:55 AM 57.2 °F - 28.4 °F 33% 29.68 in 10.0 mi West 16.1 mph 26.5 mph N/A   Clear
12:15 PM 57.2 °F - 26.6 °F 31% 29.68 in 10.0 mi West 20.7 mph 27.6 mph N/A   Clear
12:35 PM 57.2 °F - 26.6 °F 31% 29.67 in 10.0 mi WNW 16.1 mph 26.5 mph N/A   Clear
12:55 PM 57.2 °F - 26.6 °F 31% 29.67 in 10.0 mi WNW 19.6 mph 26.5 mph N/A   Clear
1:15 PM 59.0 °F - 26.6 °F 29% 29.66 in 10.0 mi WNW 21.9 mph 27.6 mph N/A   Clear
1:35 PM 60.8 °F - 26.6 °F 27% 29.66 in 10.0 mi WNW 13.8 mph 27.6 mph N/A   Clear
1:55 PM 60.8 °F - 26.6 °F 27% 29.66 in 10.0 mi West 17.3 mph 25.3 mph N/A   Clear
2:15 PM 60.8 °F - 26.6 °F 27% 29.65 in 10.0 mi WNW 15.0 mph 29.9 mph N/A   Clear
2:35 PM 60.8 °F - 24.8 °F 25% 29.65 in 10.0 mi West 12.7 mph 28.8 mph N/A   Clear
2:55 PM 60.8 °F - 24.8 °F 25% 29.65 in 10.0 mi WNW 21.9 mph 31.1 mph N/A   Clear
3:15 PM 60.8 °F - 24.8 °F 25% 29.65 in 10.0 mi West 24.2 mph 29.9 mph N/A   Clear
3:35 PM 60.8 °F - 24.8 °F 25% 29.65 in 10.0 mi West 18.4 mph 27.6 mph N/A   Clear
3:55 PM 62.6 °F - 24.8 °F 24% 29.65 in 10.0 mi WNW 13.8 mph 27.6 mph N/A   Clear
4:15 PM 62.6 °F - 24.8 °F 24% 29.65 in 10.0 mi WNW 15.0 mph 23.0 mph N/A   Clear
4:35 PM 62.6 °F - 23.0 °F 22% 29.66 in 10.0 mi West 20.7 mph 27.6 mph N/A   Clear
4:55 PM 62.6 °F - 23.0 °F 22% 29.66 in 10.0 mi West 17.3 mph 25.3 mph N/A   Clear
5:15 PM 60.8 °F - 23.0 °F 23% 29.66 in 10.0 mi West 16.1 mph 25.3 mph N/A   Clear
5:35 PM 60.8 °F - 23.0 °F 23% 29.67 in 10.0 mi West 15.0 mph 23.0 mph N/A   Clear
5:55 PM 60.8 °F - 23.0 °F 23% 29.68 in 10.0 mi WNW 13.8 mph 21.9 mph N/A   Clear
6:15 PM 59.0 °F - 21.2 °F 23% 29.69 in 10.0 mi West 17.3 mph 23.0 mph N/A   Clear
6:35 PM 59.0 °F - 23.0 °F 25% 29.69 in 10.0 mi WNW 11.5 mph 18.4 mph N/A   Clear
6:55 PM 57.2 °F - 23.0 °F 27% 29.70 in 10.0 mi WNW 10.4 mph 16.1 mph N/A   Clear
7:15 PM 57.2 °F - 21.2 °F 25% 29.71 in 10.0 mi WNW 8.1 mph 17.3 mph N/A   Clear
7:35 PM 55.4 °F - 23.0 °F 29% 29.73 in 10.0 mi West 8.1 mph 17.3 mph N/A   Clear
7:55 PM 55.4 °F - 23.0 °F 29% 29.74 in 10.0 mi WNW 12.7 mph - N/A   Clear
8:15 PM 55.4 °F - 23.0 °F 29% 29.74 in 10.0 mi WNW 9.2 mph 18.4 mph N/A   Clear
8:35 PM 53.6 °F - 23.0 °F 30% 29.76 in 10.0 mi WNW 8.1 mph - N/A   Clear
8:55 PM 53.6 °F - 23.0 °F 30% 29.77 in 10.0 mi West 6.9 mph - N/A   Clear
9:35 PM 53.6 °F - 23.0 °F 30% 29.79 in 10.0 mi West 11.5 mph - N/A   Clear
9:55 PM 53.6 °F - 23.0 °F 30% 29.80 in 10.0 mi West 11.5 mph 21.9 mph N/A   Clear
10:15 PM 53.6 °F - 23.0 °F 30% 29.80 in 10.0 mi West 10.4 mph - N/A   Clear
10:55 PM 51.8 °F - 24.8 °F 35% 29.81 in 10.0 mi WNW 12.7 mph 19.6 mph N/A   Clear
11:35 PM 53.6 °F - 24.8 °F 33% 29.81 in 10.0 mi West 12.7 mph 20.7 mph N/A   Clear
11:55 PM 51.8 °F - 26.6 °F 38% 29.82 in 10.0 mi West 11.5 mph - N/A   Clear